aviador You're here:

LYNI Decoded Metar

NIS in SERBIA
Report Time2018-02-22 08:30:00
UTC Time2018-02-22 08:45:56
Flight Rules vfr VFR
Wind080° at 11 kt
W.Decomp.*RWY 11: 9.2 kt HW 6 kt LCW
W.Rank080° ranks 8
Current wind is above 080° avg. (5.2)
Visibility9999 m
Phenomena:Light Rain
Clouds:Few 017 Hf
Broken 040 Hf
Expected CloudBase > 2,000 ft AGL from Temp-Dew spread
Ceiling4,000 ft
Temp05°C (ISA -9)
Dew Point00°C (70% RH)
AAT-0.9°C
QNH1011 hPa
Density Alt-230 ft
Elevation663 ft
Report Wrong Elevation
Raw Report
LYNI 220830Z 08011KT 9999 -RA FEW017 BKN040 05/M00 Q1011 NOSIG=

Extra information for LYNI:More info

Metar Taf Metar & Taf Last 4 Metars F.Rules Stats Wind Profile Meteogram Temp Stats Airport Information Weather charts Add Link Nearby VenuesMetar ALERT Operation Metar Decoded Social comments